createdAt,value
2022-08-14T00:01:10.225Z,19.60
2022-08-14T00:04:53.639Z,19.50
2022-08-14T00:08:45.071Z,19.50
2022-08-14T00:12:33.695Z,19.40
2022-08-14T00:16:41.220Z,19.40
2022-08-14T00:20:30.629Z,19.30
2022-08-14T00:24:28.537Z,19.30
2022-08-14T00:28:15.598Z,19.20
2022-08-14T00:31:59.916Z,19.20
2022-08-14T00:36:35.629Z,19.10
2022-08-14T00:39:43.895Z,19.00
2022-08-14T00:43:32.284Z,19.00
2022-08-14T00:47:16.117Z,18.90
2022-08-14T00:50:58.109Z,18.80
2022-08-14T00:54:40.527Z,18.80
2022-08-14T00:58:33.098Z,18.70
2022-08-14T01:02:20.036Z,18.70
2022-08-14T01:06:02.060Z,18.60
2022-08-14T01:09:55.284Z,18.60
2022-08-14T01:13:42.888Z,18.50
2022-08-14T01:17:49.498Z,18.50
2022-08-14T01:21:38.587Z,18.50
2022-08-14T01:25:20.941Z,18.40
2022-08-14T01:29:05.856Z,18.30
2022-08-14T01:32:51.144Z,18.30
2022-08-14T01:36:39.052Z,18.30
2022-08-14T01:40:37.214Z,18.20
2022-08-14T01:44:32.390Z,18.10
2022-08-14T01:48:20.818Z,18.10
2022-08-14T01:52:09.003Z,18.00
2022-08-14T01:55:58.786Z,18.00
2022-08-14T01:59:44.160Z,17.90
2022-08-14T02:03:35.702Z,17.90
2022-08-14T02:07:34.318Z,17.80
2022-08-14T02:11:27.088Z,17.70
2022-08-14T02:15:11.499Z,17.70
2022-08-14T02:19:01.909Z,17.60
2022-08-14T02:22:48.194Z,17.60
2022-08-14T02:26:33.788Z,17.50
2022-08-14T02:30:38.541Z,17.50
2022-08-14T02:34:27.355Z,17.40
2022-08-14T02:38:11.962Z,17.40
2022-08-14T02:42:15.564Z,17.30
2022-08-14T02:46:10.871Z,17.30
2022-08-14T02:49:56.928Z,17.20
2022-08-14T02:53:42.471Z,17.10
2022-08-14T02:57:39.378Z,17.10
2022-08-14T03:01:26.210Z,17.00
2022-08-14T03:05:13.591Z,16.90
2022-08-14T03:08:57.300Z,16.80
2022-08-14T03:12:39.904Z,16.80
2022-08-14T03:16:26.944Z,16.70
2022-08-14T03:20:11.827Z,16.60
2022-08-14T03:24:16.564Z,16.60
2022-08-14T03:28:14.776Z,16.50
2022-08-14T03:32:12.449Z,16.50
2022-08-14T03:36:05.655Z,16.50
2022-08-14T03:39:58.323Z,16.40
2022-08-14T03:43:41.760Z,16.30
2022-08-14T03:47:24.261Z,16.20
2022-08-14T03:51:28.926Z,16.10
2022-08-14T03:55:12.516Z,16.00
2022-08-14T03:58:58.623Z,16.00
2022-08-14T04:02:47.035Z,16.00
2022-08-14T04:06:31.704Z,15.90
2022-08-14T04:10:14.337Z,15.90
2022-08-14T04:14:01.304Z,15.80
2022-08-14T04:17:43.841Z,15.80
2022-08-14T04:21:29.572Z,15.80
2022-08-14T04:25:21.968Z,15.70
2022-08-14T04:29:13.748Z,15.70
2022-08-14T04:33:04.683Z,15.70
2022-08-14T04:37:09.248Z,15.60
2022-08-14T04:41:11.663Z,15.60
2022-08-14T04:45:00.830Z,15.50
2022-08-14T04:48:51.011Z,15.60
2022-08-14T04:52:33.306Z,15.50
2022-08-14T04:56:30.456Z,15.50
2022-08-14T05:00:16.214Z,15.50
2022-08-14T05:04:00.481Z,15.50
2022-08-14T05:07:53.835Z,15.40
2022-08-14T05:11:44.248Z,15.40
2022-08-14T05:15:32.134Z,15.40
2022-08-14T05:19:19.016Z,15.40
2022-08-14T05:23:12.858Z,15.50
2022-08-14T05:26:59.460Z,15.50
2022-08-14T05:30:43.922Z,15.50
2022-08-14T05:34:31.569Z,15.60
2022-08-14T05:38:22.246Z,15.70
2022-08-14T05:42:22.095Z,15.70
2022-08-14T05:46:23.109Z,15.70
2022-08-14T05:50:05.475Z,15.80
2022-08-14T05:54:11.468Z,15.80
2022-08-14T05:57:59.552Z,16.00
2022-08-14T06:01:54.241Z,16.20
2022-08-14T06:05:40.104Z,16.40
2022-08-14T06:09:22.399Z,16.70
2022-08-14T06:13:08.288Z,17.00
2022-08-14T06:16:53.054Z,17.30
2022-08-14T06:20:36.527Z,17.80
2022-08-14T06:24:25.084Z,18.30
2022-08-14T06:28:27.379Z,18.80
2022-08-14T06:32:36.721Z,19.10
2022-08-14T06:36:21.501Z,19.70
2022-08-14T06:40:26.031Z,20.30
2022-08-14T06:44:10.127Z,20.80
2022-08-14T06:48:13.467Z,21.40
2022-08-14T06:51:56.474Z,21.90
2022-08-14T06:55:40.828Z,22.40
2022-08-14T06:59:40.666Z,22.90
2022-08-14T07:03:49.110Z,23.40
2022-08-14T07:07:41.339Z,23.70
2022-08-14T07:12:02.037Z,24.30
2022-08-14T07:15:47.188Z,25.10
2022-08-14T07:19:41.565Z,25.90
2022-08-14T07:23:24.733Z,26.80
2022-08-14T07:27:07.944Z,27.70
2022-08-14T07:31:04.756Z,28.50
2022-08-14T07:34:47.784Z,29.30
2022-08-14T07:38:52.344Z,30.00
2022-08-14T07:42:34.962Z,30.40
2022-08-14T07:46:21.272Z,31.00
2022-08-14T07:50:21.679Z,31.40
2022-08-14T07:54:09.808Z,31.90
2022-08-14T07:57:57.874Z,32.10
2022-08-14T08:01:48.259Z,32.40
2022-08-14T08:05:52.726Z,32.70
2022-08-14T08:09:36.915Z,33.30
2022-08-14T08:13:23.973Z,33.90
2022-08-14T08:17:07.423Z,34.30
2022-08-14T08:20:54.680Z,34.70
2022-08-14T08:25:00.925Z,35.50
2022-08-14T08:28:43.865Z,36.40
2022-08-14T08:32:29.946Z,36.80
2022-08-14T08:36:18.659Z,37.10
2022-08-14T08:40:02.990Z,37.50
2022-08-14T08:43:47.022Z,38.00
2022-08-14T08:47:33.208Z,38.50
2022-08-14T08:51:42.817Z,39.30
2022-08-14T08:55:39.310Z,40.00
2022-08-14T08:59:27.199Z,40.40
2022-08-14T09:03:24.463Z,41.00
2022-08-14T09:07:10.042Z,42.10
2022-08-14T09:11:19.267Z,43.30
2022-08-14T09:15:11.734Z,44.00
2022-08-14T09:19:06.374Z,44.30
2022-08-14T09:22:48.785Z,44.60
2022-08-14T09:26:32.362Z,44.70
2022-08-14T09:30:32.904Z,45.00
2022-08-14T09:34:59.284Z,45.10
2022-08-14T09:38:54.083Z,45.30
2022-08-14T09:43:13.826Z,45.00
2022-08-14T09:47:17.485Z,45.00
2022-08-14T09:55:09.778Z,44.60
2022-08-14T09:58:49.822Z,44.80
2022-08-14T10:02:34.479Z,45.00
2022-08-14T10:06:28.382Z,45.70
2022-08-14T10:10:23.284Z,46.20
2022-08-14T10:14:29.133Z,46.50
2022-08-14T10:18:20.345Z,46.70
2022-08-14T10:23:13.646Z,47.10
2022-08-14T10:26:23.219Z,47.00
2022-08-14T11:53:14.304Z,35.40
2022-08-14T11:56:56.981Z,35.30
2022-08-14T12:00:52.593Z,35.30
2022-08-14T12:05:09.252Z,35.10
2022-08-14T12:09:17.742Z,34.80
2022-08-14T12:13:19.210Z,34.50
2022-08-14T12:17:13.360Z,34.40
2022-08-14T12:20:59.368Z,34.40
2022-08-14T12:25:11.347Z,34.40
2022-08-14T12:33:32.657Z,34.40
2022-08-14T12:37:51.620Z,34.30
2022-08-14T12:42:06.649Z,34.20
2022-08-14T12:45:51.024Z,34.20
2022-08-14T12:49:51.224Z,34.20
2022-08-14T12:53:38.581Z,34.30
2022-08-14T12:57:45.895Z,34.50
2022-08-14T13:01:59.612Z,34.70
2022-08-14T13:05:38.224Z,34.90
2022-08-14T13:09:27.900Z,34.80
2022-08-14T13:13:52.697Z,34.60
2022-08-14T13:18:20.885Z,34.60
2022-08-14T13:22:33.540Z,34.50
2022-08-14T13:26:24.276Z,34.50
2022-08-14T13:30:45.027Z,34.50
2022-08-14T13:34:54.231Z,34.50
2022-08-14T13:38:37.203Z,34.50
2022-08-14T13:46:25.736Z,34.10
2022-08-14T13:54:19.133Z,33.80
2022-08-14T13:58:03.420Z,33.80
2022-08-14T14:02:05.183Z,33.80
2022-08-14T14:05:53.365Z,33.90
2022-08-14T14:09:52.530Z,34.10
2022-08-14T14:13:42.083Z,34.20
2022-08-14T14:17:43.985Z,34.10
2022-08-14T14:21:28.803Z,34.00
2022-08-14T14:25:46.064Z,34.00
2022-08-14T14:29:36.749Z,33.80
2022-08-14T14:33:48.756Z,33.70
2022-08-14T14:37:31.153Z,33.60
2022-08-14T14:41:45.466Z,33.50
2022-08-14T14:45:57.808Z,33.30
2022-08-14T14:49:54.729Z,33.10
2022-08-14T14:53:52.902Z,32.90
2022-08-14T14:57:36.264Z,32.80
2022-08-14T15:06:17.679Z,32.50
2022-08-14T15:10:00.826Z,32.40
2022-08-14T15:14:57.126Z,32.40
2022-08-14T15:18:40.038Z,32.50
2022-08-14T15:22:29.163Z,32.50
2022-08-14T15:26:32.139Z,32.60
2022-08-14T15:30:15.219Z,32.70
2022-08-14T15:34:45.281Z,32.70
2022-08-14T15:39:13.237Z,32.80
2022-08-14T15:43:42.985Z,32.90
2022-08-14T15:48:15.785Z,33.00
2022-08-14T15:52:33.149Z,33.00
2022-08-14T15:56:32.954Z,33.00
2022-08-14T16:00:43.623Z,33.00
2022-08-14T16:08:29.745Z,32.90
2022-08-14T16:12:58.710Z,32.90
2022-08-14T16:17:14.008Z,32.80
2022-08-14T16:20:57.523Z,32.90
2022-08-14T16:25:05.479Z,32.80
2022-08-14T16:28:58.806Z,32.80
2022-08-14T16:36:36.742Z,32.70
2022-08-14T16:44:37.808Z,32.60
2022-08-14T16:48:57.488Z,32.50
2022-08-14T16:52:45.027Z,32.40
2022-08-14T16:56:46.566Z,32.30
2022-08-14T17:00:32.633Z,32.20
2022-08-14T17:04:31.694Z,32.00
2022-08-14T17:08:33.429Z,31.90
2022-08-14T17:12:35.102Z,31.90
2022-08-14T17:16:25.554Z,31.80
2022-08-14T17:20:39.553Z,31.70
2022-08-14T17:28:50.504Z,31.50
2022-08-14T17:33:03.331Z,31.30
2022-08-14T17:37:22.979Z,31.20
2022-08-14T17:41:43.587Z,31.10
2022-08-14T17:49:51.452Z,30.80
2022-08-14T17:57:45.536Z,30.50
2022-08-14T18:06:07.812Z,30.20
2022-08-14T18:10:32.241Z,30.00
2022-08-14T18:14:32.017Z,29.80
2022-08-14T18:18:16.149Z,29.50
2022-08-14T18:22:32.972Z,29.40
2022-08-14T18:30:33.190Z,29.00
2022-08-14T18:34:50.772Z,28.80
2022-08-14T18:38:46.181Z,28.70
2022-08-14T18:42:36.129Z,28.50
2022-08-14T18:46:59.843Z,28.40
2022-08-14T18:50:31.381Z,28.20
2022-08-14T19:02:52.248Z,27.70
2022-08-14T19:06:42.895Z,27.60
2022-08-14T19:10:49.443Z,27.40
2022-08-14T19:19:01.017Z,27.00
2022-08-14T19:23:15.451Z,26.80
2022-08-14T19:35:55.998Z,26.30
2022-08-14T19:39:54.279Z,26.00
2022-08-14T19:43:56.069Z,25.90
2022-08-14T19:47:41.493Z,25.70
2022-08-14T19:51:24.656Z,25.60
2022-08-14T19:55:19.855Z,25.50
2022-08-14T19:59:02.160Z,25.40
2022-08-14T20:02:50.829Z,25.20
2022-08-14T20:06:43.245Z,25.10
2022-08-14T20:11:05.757Z,24.90
2022-08-14T20:14:35.742Z,24.80
2022-08-14T20:18:49.350Z,24.70
2022-08-14T20:22:37.556Z,24.50
2022-08-14T20:26:30.701Z,24.40
2022-08-14T20:30:37.579Z,24.20
2022-08-14T20:34:35.659Z,24.00
2022-08-14T20:38:33.371Z,24.00
2022-08-14T20:42:38.956Z,23.80
2022-08-14T20:46:38.695Z,23.70
2022-08-14T20:50:28.366Z,23.50
2022-08-14T20:54:14.805Z,23.40
2022-08-14T20:57:59.333Z,23.30
2022-08-14T21:01:42.109Z,23.20
2022-08-14T21:05:33.977Z,23.10
2022-08-14T21:09:19.821Z,22.90
2022-08-14T21:13:27.508Z,22.80
2022-08-14T21:17:24.047Z,22.70
2022-08-14T21:21:08.449Z,22.60
2022-08-14T21:24:50.899Z,22.60
2022-08-14T21:28:44.973Z,22.50
2022-08-14T21:32:47.355Z,22.40
2022-08-14T21:36:33.679Z,22.30
2022-08-14T21:40:41.697Z,22.10
2022-08-14T21:44:36.158Z,22.00
2022-08-14T21:48:30.909Z,22.00
2022-08-14T21:52:50.350Z,21.90
2022-08-14T21:56:20.169Z,21.80
2022-08-14T22:00:35.634Z,21.70
2022-08-14T22:04:32.836Z,21.60
2022-08-14T22:08:18.417Z,21.50
2022-08-14T22:12:02.069Z,21.40
2022-08-14T22:15:49.975Z,21.40
2022-08-14T22:19:47.199Z,21.30
2022-08-14T22:23:36.192Z,21.20
2022-08-14T22:27:18.249Z,21.20
2022-08-14T22:31:11.557Z,21.20
2022-08-14T22:35:00.464Z,21.30
2022-08-14T22:38:50.091Z,21.20
2022-08-14T22:42:36.935Z,21.30
2022-08-14T22:46:20.758Z,21.40
2022-08-14T22:50:31.597Z,21.40
2022-08-14T22:54:06.476Z,21.40
2022-08-14T22:57:48.948Z,21.50
2022-08-14T23:01:56.847Z,21.50
2022-08-14T23:05:52.935Z,21.50
2022-08-14T23:09:38.640Z,21.50
2022-08-14T23:13:24.777Z,21.50
2022-08-14T23:17:07.957Z,21.40
2022-08-14T23:20:54.170Z,21.40
2022-08-14T23:24:41.590Z,21.30
2022-08-14T23:28:32.938Z,21.20
2022-08-14T23:32:18.807Z,21.10
2022-08-14T23:36:04.838Z,20.90
2022-08-14T23:40:29.556Z,20.80
2022-08-14T23:44:10.862Z,20.70
2022-08-14T23:47:53.074Z,20.60
2022-08-14T23:51:36.572Z,20.50
2022-08-14T23:55:21.316Z,20.30
2022-08-14T23:59:03.327Z,20.20
